Time;durP1;ratioP1;P1;durP2;ratioP2;P2;SDS_P1;SDS_P2;PMS_P1;PMS_P2;Temp;Humidity;BMP_temperature;BMP_pressure;BME280_temperature;BME280_humidity;BME280_pressure;Samples;Min_cycle;Max_cycle;Signal;HPM_P1;HPM_P2
2021/09/29 00:01:03;;;;;;;18.70;7.97;;;;;;;;;;4988124;28;20189;-65
2021/09/29 00:03:29;;;;;;;18.92;8.38;;;;;;;;;;4988713;28;20046;-66
2021/09/29 00:05:55;;;;;;;14.82;7.70;;;;;;;;;;4991252;28;20046;-66
2021/09/29 00:08:22;;;;;;;24.67;9.27;;;;;;;;;;5006610;28;20042;-66
2021/09/29 00:10:48;;;;;;;15.02;7.93;;;;;;;;;;5003813;28;20096;-65
2021/09/29 00:13:14;;;;;;;17.55;8.77;;;;;;;;;;4988480;28;20042;-65
2021/09/29 00:15:40;;;;;;;14.98;7.65;;;;;;;;;;5006638;28;20053;-65
2021/09/29 00:18:06;;;;;;;21.45;8.80;;;;;;;;;;5006723;28;20044;-65
2021/09/29 00:20:32;;;;;;;15.38;8.43;;;;;;;;;;5003985;28;20050;-66
2021/09/29 00:22:59;;;;;;;13.90;8.50;;;;;;;;;;5006083;28;20034;-66
2021/09/29 00:25:25;;;;;;;14.35;8.00;;;;;;;;;;5006790;28;20046;-65
2021/09/29 00:27:51;;;;;;;15.85;7.68;;;;;;;;;;4993505;28;20041;-66
2021/09/29 00:30:19;;;;;;;15.30;8.18;;;;;;;;;;5007310;28;20049;-66
2021/09/29 00:32:45;;;;;;;16.55;7.38;;;;;;;;;;5005589;28;20442;-66
2021/09/29 00:35:12;;;;;;;16.55;7.93;;;;;;;;;;5005656;28;20081;-66
2021/09/29 00:37:39;;;;;;;12.75;7.82;;;;;;;;;;5008304;28;20469;-65
2021/09/29 00:40:05;;;;;;;18.10;9.00;;;;;;;;;;5005839;28;20393;-66
2021/09/29 00:42:32;;;;;;;14.48;7.50;;;;;;;;;;5005159;28;20038;-66
2021/09/29 00:44:58;;;;;;;19.27;8.15;;;;;;;;;;5003586;28;20037;-66
2021/09/29 00:47:27;;;;;;;16.35;7.80;;;;;;;;;;4990862;28;20045;-66
2021/09/29 00:49:53;;;;;;;20.40;8.10;;;;;;;;;;5003264;28;20148;-66
2021/09/29 00:52:19;;;;;;;22.52;9.25;;;;;;;;;;4987593;28;20034;-66
2021/09/29 00:54:45;;;;;;;18.92;8.10;;;;;;;;;;5005449;28;20048;-66
2021/09/29 00:57:12;;;;;;;22.67;8.25;;;;;;;;;;5023808;28;20104;-66
2021/09/29 00:59:38;;;;;;;18.33;7.70;;;;;;;;;;5022410;28;20529;-66
2021/09/29 01:02:04;;;;;;;13.00;7.80;;;;;;;;;;5021628;28;20042;-66
2021/09/29 01:04:31;;;;;;;18.38;7.75;;;;;;;;;;5026691;28;20045;-65
2021/09/29 01:07:03;;;;;;;21.48;8.30;;;;;;;;;;5008402;28;20490;-66
2021/09/29 01:09:34;;;;;;;12.07;7.95;;;;;;;;;;5009139;28;20088;-65
2021/09/29 01:12:03;;;;;;;17.88;7.95;;;;;;;;;;5005975;28;20129;-65
2021/09/29 01:14:33;;;;;;;19.40;9.13;;;;;;;;;;5023866;28;20133;-66
2021/09/29 01:17:01;;;;;;;15.68;8.70;;;;;;;;;;5026636;28;20172;-65
2021/09/29 01:19:38;;;;;;;16.67;8.57;;;;;;;;;;5024286;28;20391;-65
2021/09/29 01:22:10;;;;;;;17.95;8.63;;;;;;;;;;5025540;28;20053;-66
2021/09/29 01:24:38;;;;;;;20.17;8.43;;;;;;;;;;5021988;28;20240;-66
2021/09/29 01:27:04;;;;;;;14.55;7.75;;;;;;;;;;5023013;28;20045;-65
2021/09/29 01:29:30;;;;;;;17.45;8.73;;;;;;;;;;5022551;28;20046;-65
2021/09/29 01:31:57;;;;;;;15.68;8.23;;;;;;;;;;5023249;28;20124;-65
2021/09/29 01:34:23;;;;;;;15.88;8.52;;;;;;;;;;5024061;28;20045;-65
2021/09/29 01:36:50;;;;;;;18.77;8.45;;;;;;;;;;5023461;28;20064;-65
2021/09/29 01:39:21;;;;;;;17.05;8.95;;;;;;;;;;5027219;28;20104;-66
2021/09/29 01:41:47;;;;;;;17.35;9.18;;;;;;;;;;5024498;28;20495;-66
2021/09/29 01:44:14;;;;;;;19.35;9.07;;;;;;;;;;5032072;28;20038;-66
2021/09/29 01:46:40;;;;;;;19.35;8.77;;;;;;;;;;5007645;28;20053;-66
2021/09/29 01:49:10;;;;;;;18.65;8.60;;;;;;;;;;5030409;28;20511;-65
2021/09/29 01:51:40;;;;;;;22.40;8.43;;;;;;;;;;5028437;28;20175;-65
2021/09/29 01:54:07;;;;;;;16.88;8.00;;;;;;;;;;5027310;28;20399;-65
2021/09/29 01:56:34;;;;;;;14.65;9.05;;;;;;;;;;5028832;28;20058;-66
2021/09/29 01:59:03;;;;;;;20.08;8.88;;;;;;;;;;5009491;28;20038;-66
2021/09/29 02:01:29;;;;;;;14.88;7.50;;;;;;;;;;5001944;28;20156;-66
2021/09/29 02:03:55;;;;;;;19.52;8.93;;;;;;;;;;5026596;28;20135;-65
2021/09/29 02:06:21;;;;;;;20.05;8.88;;;;;;;;;;5023023;28;20045;-66
2021/09/29 02:08:47;;;;;;;17.52;9.43;;;;;;;;;;5031136;28;20051;-65
2021/09/29 02:11:14;;;;;;;18.48;9.43;;;;;;;;;;5024828;28;20053;-65
2021/09/29 02:13:40;;;;;;;14.95;8.50;;;;;;;;;;5031396;28;20524;-65
2021/09/29 02:16:06;;;;;;;16.58;8.60;;;;;;;;;;5028388;28;20435;-65
2021/09/29 02:18:32;;;;;;;15.77;8.15;;;;;;;;;;5028122;28;20049;-66
2021/09/29 02:20:58;;;;;;;17.73;8.30;;;;;;;;;;5023588;28;20092;-65
2021/09/29 02:23:24;;;;;;;12.90;7.20;;;;;;;;;;5026127;28;20081;-66
2021/09/29 02:25:51;;;;;;;15.93;8.48;;;;;;;;;;5014345;28;20045;-66
2021/09/29 02:28:17;;;;;;;15.05;7.72;;;;;;;;;;5030964;28;20033;-65
2021/09/29 02:30:43;;;;;;;15.00;7.95;;;;;;;;;;4998365;28;20053;-66
2021/09/29 02:33:09;;;;;;;17.70;7.80;;;;;;;;;;5030999;28;20038;-65
2021/09/29 02:35:36;;;;;;;16.88;7.60;;;;;;;;;;5021143;28;20244;-66
2021/09/29 02:38:02;;;;;;;18.73;8.05;;;;;;;;;;5030919;28;20430;-65
2021/09/29 02:40:28;;;;;;;14.05;7.47;;;;;;;;;;5026046;28;20138;-66
2021/09/29 02:42:54;;;;;;;17.92;8.00;;;;;;;;;;5027027;28;20492;-66
2021/09/29 02:45:20;;;;;;;16.88;6.78;;;;;;;;;;5027570;28;20129;-65
2021/09/29 02:47:46;;;;;;;14.98;6.50;;;;;;;;;;5026462;28;20045;-65
2021/09/29 02:50:13;;;;;;;14.10;7.35;;;;;;;;;;5029221;28;20048;-66
2021/09/29 02:52:39;;;;;;;14.60;7.13;;;;;;;;;;5025493;28;20059;-66
2021/09/29 02:55:05;;;;;;;15.73;7.80;;;;;;;;;;5023851;28;20041;-66
2021/09/29 02:57:31;;;;;;;18.40;7.40;;;;;;;;;;5024791;28;20037;-66
2021/09/29 02:59:58;;;;;;;11.48;6.97;;;;;;;;;;5028598;28;20125;-65
2021/09/29 03:02:24;;;;;;;14.18;7.25;;;;;;;;;;5024920;28;20041;-65
2021/09/29 03:04:50;;;;;;;16.25;6.50;;;;;;;;;;5023565;28;20050;-65
2021/09/29 03:07:16;;;;;;;14.15;6.68;;;;;;;;;;5023698;28;20091;-65
2021/09/29 03:09:42;;;;;;;15.05;7.18;;;;;;;;;;5030036;28;20042;-66
2021/09/29 03:12:08;;;;;;;14.23;6.82;;;;;;;;;;5024542;28;20536;-65
2021/09/29 03:14:35;;;;;;;11.82;6.13;;;;;;;;;;5016796;28;20041;-65
2021/09/29 03:17:01;;;;;;;17.52;6.55;;;;;;;;;;5024130;28;20045;-66
2021/09/29 03:19:27;;;;;;;16.30;6.63;;;;;;;;;;5027763;28;20044;-65
2021/09/29 03:21:54;;;;;;;13.82;5.88;;;;;;;;;;5027613;28;20138;-65
2021/09/29 03:24:20;;;;;;;13.07;7.05;;;;;;;;;;5025507;28;20050;-65
2021/09/29 03:26:47;;;;;;;11.57;7.05;;;;;;;;;;5029971;28;20052;-65
2021/09/29 03:29:13;;;;;;;12.32;6.57;;;;;;;;;;5030381;28;20034;-65
2021/09/29 03:31:40;;;;;;;17.08;7.50;;;;;;;;;;5008583;28;20049;-66
2021/09/29 03:34:06;;;;;;;17.20;8.18;;;;;;;;;;5024080;28;20133;-66
2021/09/29 03:36:32;;;;;;;13.30;7.10;;;;;;;;;;5030183;28;20516;-66
2021/09/29 03:39:00;;;;;;;13.48;7.07;;;;;;;;;;5009086;28;20068;-65
2021/09/29 03:41:27;;;;;;;14.90;7.35;;;;;;;;;;5022329;28;20056;-65
2021/09/29 03:43:53;;;;;;;17.77;8.45;;;;;;;;;;5026784;28;20124;-65
2021/09/29 03:46:19;;;;;;;17.33;6.50;;;;;;;;;;5008392;28;20049;-65
2021/09/29 03:48:46;;;;;;;17.75;7.05;;;;;;;;;;5019525;28;20092;-66
2021/09/29 03:51:12;;;;;;;19.42;7.50;;;;;;;;;;5009573;28;20049;-66
2021/09/29 03:53:38;;;;;;;17.67;7.45;;;;;;;;;;5024082;28;20044;-65
2021/09/29 03:56:04;;;;;;;16.58;7.32;;;;;;;;;;5022648;28;20462;-64
2021/09/29 03:58:31;;;;;;;14.23;7.55;;;;;;;;;;5024756;28;20076;-66
2021/09/29 04:00:57;;;;;;;18.35;7.85;;;;;;;;;;5027309;28;20095;-66
2021/09/29 04:03:23;;;;;;;15.77;7.40;;;;;;;;;;5029601;28;20157;-66
2021/09/29 04:05:49;;;;;;;17.75;8.20;;;;;;;;;;5025486;28;20064;-65
2021/09/29 04:08:16;;;;;;;17.95;8.30;;;;;;;;;;5025410;28;20760;-65
2021/09/29 04:10:43;;;;;;;16.30;8.18;;;;;;;;;;5022985;28;20080;-66
2021/09/29 04:13:09;;;;;;;15.18;7.60;;;;;;;;;;5024932;28;20088;-65
2021/09/29 04:15:35;;;;;;;20.23;8.02;;;;;;;;;;5011250;28;20046;-65
2021/09/29 04:18:02;;;;;;;15.88;7.78;;;;;;;;;;5026399;28;20072;-65
2021/09/29 04:20:28;;;;;;;17.50;8.00;;;;;;;;;;5012966;28;20084;-66
2021/09/29 04:22:54;;;;;;;16.23;7.90;;;;;;;;;;5027873;28;20121;-65
2021/09/29 04:25:21;;;;;;;11.80;7.22;;;;;;;;;;5029637;28;20048;-66
2021/09/29 04:27:47;;;;;;;16.20;7.70;;;;;;;;;;5027612;28;20090;-65
2021/09/29 04:30:14;;;;;;;17.92;9.23;;;;;;;;;;5028636;28;20150;-65
2021/09/29 04:32:41;;;;;;;15.00;7.90;;;;;;;;;;5018015;28;20041;-66
2021/09/29 04:35:08;;;;;;;17.70;7.75;;;;;;;;;;5025042;28;20405;-66
2021/09/29 04:37:34;;;;;;;16.08;7.30;;;;;;;;;;5028155;28;20041;-66
2021/09/29 04:40:00;;;;;;;19.33;8.68;;;;;;;;;;5024964;28;20128;-66
2021/09/29 04:42:26;;;;;;;16.73;7.63;;;;;;;;;;5015490;28;20099;-65
2021/09/29 04:44:52;;;;;;;19.55;9.07;;;;;;;;;;5025746;28;20053;-66
2021/09/29 04:47:19;;;;;;;16.00;7.75;;;;;;;;;;5026871;28;20037;-65
2021/09/29 04:49:45;;;;;;;19.88;8.25;;;;;;;;;;5018955;28;20041;-66
2021/09/29 04:52:11;;;;;;;15.25;8.35;;;;;;;;;;5007301;28;20038;-65
2021/09/29 04:54:37;;;;;;;24.25;9.07;;;;;;;;;;5008936;28;20080;-65
2021/09/29 04:57:04;;;;;;;16.65;9.40;;;;;;;;;;5017408;28;20489;-65
2021/09/29 04:59:31;;;;;;;16.70;8.57;;;;;;;;;;5022992;28;20521;-66
2021/09/29 05:01:57;;;;;;;23.40;9.73;;;;;;;;;;5017522;28;20061;-66
2021/09/29 05:04:25;;;;;;;16.90;8.25;;;;;;;;;;5023658;28;20111;-65
2021/09/29 05:06:51;;;;;;;18.90;8.80;;;;;;;;;;5022995;28;20065;-65
2021/09/29 05:09:17;;;;;;;18.05;8.45;;;;;;;;;;5016647;28;20789;-66
2021/09/29 05:11:45;;;;;;;15.98;8.52;;;;;;;;;;5024805;28;20065;-66
2021/09/29 05:14:11;;;;;;;18.92;9.75;;;;;;;;;;5024382;28;20123;-65
2021/09/29 05:16:40;;;;;;;17.90;8.48;;;;;;;;;;5026398;28;20038;-66
2021/09/29 05:19:06;;;;;;;18.92;8.55;;;;;;;;;;5024458;28;20141;-66
2021/09/29 05:21:33;;;;;;;16.63;7.95;;;;;;;;;;5024637;28;20041;-66
2021/09/29 05:24:00;;;;;;;13.23;7.35;;;;;;;;;;5022722;28;20409;-66
2021/09/29 05:26:26;;;;;;;19.30;9.38;;;;;;;;;;5020718;28;20413;-66
2021/09/29 05:28:53;;;;;;;15.35;8.23;;;;;;;;;;5038798;28;20057;-66
2021/09/29 05:31:19;;;;;;;19.13;8.70;;;;;;;;;;5026381;28;20099;-66
2021/09/29 05:33:45;;;;;;;15.52;8.32;;;;;;;;;;5024105;28;20064;-65
2021/09/29 05:36:11;;;;;;;14.98;9.13;;;;;;;;;;5025988;28;20049;-65
2021/09/29 05:38:38;;;;;;;16.23;7.43;;;;;;;;;;5024480;28;20649;-65
2021/09/29 05:41:04;;;;;;;15.43;8.10;;;;;;;;;;5028350;28;20046;-65
2021/09/29 05:43:30;;;;;;;14.02;7.47;;;;;;;;;;5025879;28;20037;-65
2021/09/29 05:45:58;;;;;;;17.67;9.18;;;;;;;;;;5023287;28;20521;-65
2021/09/29 05:48:24;;;;;;;16.88;7.72;;;;;;;;;;5023379;28;20045;-65
2021/09/29 05:50:50;;;;;;;15.73;8.38;;;;;;;;;;5023695;28;20060;-65
2021/09/29 05:53:17;;;;;;;15.27;8.90;;;;;;;;;;5024245;28;20045;-65
2021/09/29 05:55:43;;;;;;;17.52;8.68;;;;;;;;;;5026309;28;20053;-65
2021/09/29 05:58:09;;;;;;;14.00;8.00;;;;;;;;;;5012041;28;20057;-65
2021/09/29 06:00:36;;;;;;;15.02;7.50;;;;;;;;;;5026076;28;20057;-65
2021/09/29 06:03:02;;;;;;;13.90;7.25;;;;;;;;;;5027591;28;20070;-65
2021/09/29 06:05:28;;;;;;;11.68;7.40;;;;;;;;;;5023507;28;20042;-65
2021/09/29 06:07:54;;;;;;;17.70;7.82;;;;;;;;;;5027595;28;20049;-65
2021/09/29 06:10:20;;;;;;;19.08;8.10;;;;;;;;;;5026487;28;20052;-65
2021/09/29 06:12:46;;;;;;;16.90;8.70;;;;;;;;;;5025153;28;20049;-66
2021/09/29 06:15:20;;;;;;;18.65;9.55;;;;;;;;;;5024823;28;20454;-65
2021/09/29 06:17:55;;;;;;;;;;;;;;;;;;5030596;28;20100;-66
2021/09/29 06:20:21;;;;;;;20.42;9.15;;;;;;;;;;5024578;28;20016;-66
2021/09/29 06:22:47;;;;;;;21.70;10.70;;;;;;;;;;5024129;28;20045;-65
2021/09/29 06:25:13;;;;;;;21.52;9.63;;;;;;;;;;5028791;28;20099;-66
2021/09/29 06:27:39;;;;;;;19.33;10.35;;;;;;;;;;5027153;28;20460;-65
2021/09/29 06:30:06;;;;;;;19.08;10.77;;;;;;;;;;5028452;28;20041;-65
2021/09/29 06:32:32;;;;;;;23.05;10.65;;;;;;;;;;5028247;28;20052;-65
2021/09/29 06:34:59;;;;;;;22.73;10.50;;;;;;;;;;5006864;28;20049;-65
2021/09/29 06:37:25;;;;;;;22.52;11.65;;;;;;;;;;5030806;28;20053;-65
2021/09/29 06:39:51;;;;;;;26.17;11.75;;;;;;;;;;5008468;28;20088;-65
2021/09/29 06:42:17;;;;;;;17.98;8.93;;;;;;;;;;5025617;28;20469;-65
2021/09/29 06:44:44;;;;;;;21.42;10.65;;;;;;;;;;5025888;28;20061;-65
2021/09/29 06:47:10;;;;;;;18.08;10.18;;;;;;;;;;5030166;28;20037;-65
2021/09/29 06:49:37;;;;;;;18.08;10.30;;;;;;;;;;5027969;28;20068;-65
2021/09/29 06:52:03;;;;;;;21.88;9.73;;;;;;;;;;5028022;28;20041;-65
2021/09/29 06:54:29;;;;;;;19.65;10.82;;;;;;;;;;5027902;28;20038;-65
2021/09/29 06:56:56;;;;;;;18.15;9.70;;;;;;;;;;5030763;28;20402;-65
2021/09/29 06:59:22;;;;;;;19.33;10.02;;;;;;;;;;5007386;28;20049;-65
2021/09/29 07:01:48;;;;;;;19.95;10.27;;;;;;;;;;5012675;28;20160;-65
2021/09/29 07:04:14;;;;;;;20.13;9.90;;;;;;;;;;5022169;28;20106;-65
2021/09/29 07:06:41;;;;;;;17.85;9.88;;;;;;;;;;5019963;28;20042;-65
2021/09/29 07:09:08;;;;;;;21.08;10.95;;;;;;;;;;5021952;28;20037;-65
2021/09/29 07:11:34;;;;;;;14.05;9.02;;;;;;;;;;5009989;28;20493;-65
2021/09/29 07:14:02;;;;;;;20.48;10.02;;;;;;;;;;5019617;28;20045;-65
2021/09/29 07:16:28;;;;;;;17.80;10.15;;;;;;;;;;5006145;28;20045;-65
2021/09/29 07:19:01;;;;;;;19.60;9.70;;;;;;;;;;5017304;28;20045;-65
2021/09/29 07:21:27;;;;;;;21.35;9.77;;;;;;;;;;5021091;28;20046;-65
2021/09/29 07:23:53;;;;;;;17.55;9.40;;;;;;;;;;5019257;28;20104;-65
2021/09/29 07:26:19;;;;;;;15.57;9.35;;;;;;;;;;5022850;28;20065;-65
2021/09/29 07:28:48;;;;;;;21.00;10.07;;;;;;;;;;5004942;28;20052;-65
2021/09/29 07:31:14;;;;;;;17.13;9.18;;;;;;;;;;5021504;28;20048;-65
2021/09/29 07:33:40;;;;;;;22.95;9.60;;;;;;;;;;5019344;28;20098;-74
2021/09/29 07:36:08;;;;;;;24.88;9.52;;;;;;;;;;5006486;28;20071;-73
2021/09/29 07:38:34;;;;;;;21.58;8.88;;;;;;;;;;5009844;28;20057;-75
2021/09/29 07:41:00;;;;;;;17.13;9.07;;;;;;;;;;4998761;28;20049;-74
2021/09/29 07:43:26;;;;;;;20.58;8.77;;;;;;;;;;4991596;28;20049;-75
2021/09/29 07:45:53;;;;;;;20.95;9.13;;;;;;;;;;5020682;28;20041;-74
2021/09/29 07:48:19;;;;;;;15.05;9.10;;;;;;;;;;5004427;28;20508;-75
2021/09/29 07:50:45;;;;;;;16.98;8.45;;;;;;;;;;5026364;28;20041;-74
2021/09/29 07:53:13;;;;;;;17.58;9.68;;;;;;;;;;5023585;28;20152;-83
2021/09/29 07:55:40;;;;;;;20.60;9.40;;;;;;;;;;5016912;28;20066;-69
2021/09/29 07:58:06;;;;;;;16.15;8.23;;;;;;;;;;5020001;28;20045;-69
2021/09/29 08:00:32;;;;;;;19.13;8.15;;;;;;;;;;5021006;28;20073;-70
2021/09/29 08:02:59;;;;;;;24.63;9.00;;;;;;;;;;5027775;28;20401;-70
2021/09/29 08:05:25;;;;;;;17.70;8.90;;;;;;;;;;5020378;28;20144;-70
2021/09/29 08:07:51;;;;;;;15.05;8.00;;;;;;;;;;5021407;28;20400;-70
2021/09/29 08:10:18;;;;;;;15.30;8.10;;;;;;;;;;4993748;28;20741;-70
2021/09/29 08:12:44;;;;;;;19.95;9.10;;;;;;;;;;5011796;28;20084;-70
2021/09/29 08:15:12;;;;;;;15.55;8.13;;;;;;;;;;5010473;28;20060;-70
2021/09/29 08:17:40;;;;;;;21.40;8.80;;;;;;;;;;5022901;28;20072;-70
2021/09/29 08:20:06;;;;;;;19.77;8.10;;;;;;;;;;5018483;28;20052;-70
2021/09/29 08:22:33;;;;;;;18.40;9.00;;;;;;;;;;5003468;28;20037;-70
2021/09/29 08:25:11;;;;;;;17.05;7.85;;;;;;;;;;5012372;28;20173;-70
2021/09/29 08:27:54;;;;;;;18.00;8.30;;;;;;;;;;5009732;28;20053;-70
2021/09/29 08:30:32;;;;;;;19.63;7.75;;;;;;;;;;5021262;28;20045;-70
2021/09/29 08:33:20;;;;;;;13.98;7.78;;;;;;;;;;5015876;28;20049;-73
2021/09/29 08:35:56;;;;;;;12.90;7.88;;;;;;;;;;5022412;28;20057;-70
2021/09/29 08:38:31;;;;;;;17.83;8.30;;;;;;;;;;5015614;28;20049;-70
2021/09/29 08:41:15;;;;;;;13.80;7.55;;;;;;;;;;5017748;28;20447;-70
2021/09/29 08:43:47;;;;;;;18.02;8.23;;;;;;;;;;5018193;28;20037;-70
2021/09/29 08:46:20;;;;;;;16.85;7.97;;;;;;;;;;5004376;28;20041;-70
2021/09/29 08:48:58;;;;;;;13.23;7.32;;;;;;;;;;5020472;28;20117;-70
2021/09/29 08:51:48;;;;;;;12.73;8.48;;;;;;;;;;5021120;28;20060;-67
2021/09/29 08:54:39;;;;;;;15.00;7.32;;;;;;;;;;5028220;28;20048;-67
2021/09/29 09:16:31;;;;;;;20.08;9.02;;;;;;;;;;5027440;28;20049;-68
2021/09/29 09:18:57;;;;;;;16.23;9.30;;;;;;;;;;5015003;28;20497;-68
2021/09/29 09:21:23;;;;;;;18.23;9.55;;;;;;;;;;5026989;28;20448;-68
2021/09/29 09:23:49;;;;;;;19.27;9.82;;;;;;;;;;5023659;28;20489;-68
2021/09/29 09:26:19;;;;;;;20.70;10.13;;;;;;;;;;5010749;28;20050;-68
2021/09/29 09:28:45;;;;;;;21.20;11.90;;;;;;;;;;5028700;28;20400;-68
2021/09/29 09:31:13;;;;;;;8.70;4.80;;;;;;;;;;5011058;28;20386;-68
2021/09/29 09:33:46;;;;;;;8.77;3.60;;;;;;;;;;5029018;28;20125;-68
2021/09/29 09:36:13;;;;;;;7.28;2.20;;;;;;;;;;5013231;28;20096;-68
2021/09/29 09:38:42;;;;;;;3.85;1.77;;;;;;;;;;5024470;28;20041;-68
2021/09/29 09:41:09;;;;;;;3.20;1.55;;;;;;;;;;5017566;28;20115;-68
2021/09/29 09:43:35;;;;;;;3.05;1.65;;;;;;;;;;5024155;28;20041;-68
2021/09/29 09:46:02;;;;;;;5.78;2.00;;;;;;;;;;5013043;28;20076;-68
2021/09/29 09:48:29;;;;;;;3.80;2.00;;;;;;;;;;5022766;28;20104;-68
2021/09/29 09:51:03;;;;;;;6.10;2.10;;;;;;;;;;5024995;28;20045;-67
2021/09/29 09:53:29;;;;;;;3.58;2.00;;;;;;;;;;5030605;28;20517;-66
2021/09/29 09:55:55;;;;;;;4.45;1.83;;;;;;;;;;5032084;28;20059;-66
2021/09/29 09:58:21;;;;;;;3.90;1.30;;;;;;;;;;5032831;28;20116;-67
2021/09/29 10:00:48;;;;;;;4.07;1.05;;;;;;;;;;5032945;28;20113;-72
2021/09/29 10:03:15;;;;;;;5.63;1.48;;;;;;;;;;5037061;28;20124;-72
2021/09/29 10:05:42;;;;;;;2.97;0.95;;;;;;;;;;5031574;28;20046;-72
2021/09/29 10:08:11;;;;;;;4.90;0.82;;;;;;;;;;5033587;28;20077;-72
2021/09/29 10:11:03;;;;;;;3.90;0.98;;;;;;;;;;5016920;28;20405;-72
2021/09/29 10:14:10;;;;;;;2.83;0.90;;;;;;;;;;5032537;28;20125;-71
2021/09/29 10:27:18;;;;;;;5.00;1.48;;;;;;;;;;5032646;28;20046;-72
2021/09/29 10:29:49;;;;;;;5.45;1.40;;;;;;;;;;5032889;28;20048;-72
2021/09/29 10:35:05;;;;;;;3.53;1.50;;;;;;;;;;5025593;28;20413;-72
2021/09/29 10:37:53;;;;;;;7.50;1.48;;;;;;;;;;5027096;28;20061;-73
2021/09/29 10:40:40;;;;;;;4.60;2.20;;;;;;;;;;5018609;28;20052;-67
2021/09/29 10:43:18;;;;;;;4.03;1.40;;;;;;;;;;5030952;28;20050;-68
2021/09/29 10:45:55;;;;;;;5.65;1.40;;;;;;;;;;5032295;28;20046;-68
2021/09/29 11:05:08;;;;;;;6.07;1.65;;;;;;;;;;5045455;28;20521;-68
2021/09/29 11:27:37;;;;;;;10.30;1.40;;;;;;;;;;5031866;28;20046;-69
2021/09/29 11:30:10;;;;;;;6.95;1.35;;;;;;;;;;5029665;28;20402;-68
2021/09/29 11:32:46;;;;;;;8.15;1.40;;;;;;;;;;5051446;28;20064;-68
2021/09/29 11:35:22;;;;;;;10.38;1.40;;;;;;;;;;5027437;28;20045;-68
2021/09/29 11:38:21;;;;;;;10.38;1.48;;;;;;;;;;5029365;28;20119;-68
2021/09/29 11:48:46;;;;;;;13.38;2.08;;;;;;;;;;5034006;28;20194;-68
2021/09/29 11:49:37;;;;;;;9.07;1.40;;;;;;;;;;5046419;28;20136;-69
2021/09/29 12:08:53;;;;;;;11.95;2.30;;;;;;;;;;5043472;28;20049;-69
2021/09/29 12:11:25;;;;;;;15.43;2.17;;;;;;;;;;5032716;28;20052;-69
2021/09/29 12:13:57;;;;;;;13.55;2.95;;;;;;;;;;5042597;28;20121;-69
2021/09/29 12:16:26;;;;;;;19.23;2.35;;;;;;;;;;5029292;28;20060;-68
2021/09/29 12:18:58;;;;;;;11.75;1.70;;;;;;;;;;5027690;28;20049;-68
2021/09/29 12:21:34;;;;;;;11.43;1.23;;;;;;;;;;5028681;28;20053;-68
2021/09/29 12:24:00;;;;;;;12.55;1.75;;;;;;;;;;5030983;28;20060;-68
2021/09/29 12:26:29;;;;;;;12.35;1.13;;;;;;;;;;5030128;28;20053;-68
2021/09/29 12:29:10;;;;;;;9.18;1.40;;;;;;;;;;5030747;28;20401;-68
2021/09/29 12:34:26;;;;;;;9.38;1.52;;;;;;;;;;5026134;28;20045;-68
2021/09/29 12:36:52;;;;;;;9.18;1.23;;;;;;;;;;5029833;28;20116;-70
2021/09/29 12:39:20;;;;;;;6.20;1.27;;;;;;;;;;5017345;28;20144;-68
2021/09/29 12:41:50;;;;;;;11.23;1.25;;;;;;;;;;5017909;28;20054;-68
2021/09/29 12:44:18;;;;;;;10.35;1.40;;;;;;;;;;5018352;28;20088;-68
2021/09/29 12:46:48;;;;;;;15.10;1.52;;;;;;;;;;5022970;28;20069;-68
2021/09/29 12:49:21;;;;;;;11.40;1.20;;;;;;;;;;5027678;28;20125;-69
2021/09/29 12:51:59;;;;;;;9.80;1.30;;;;;;;;;;5023383;28;20108;-68
2021/09/29 12:54:26;;;;;;;14.65;1.83;;;;;;;;;;5019277;28;20386;-72
2021/09/29 12:56:52;;;;;;;10.90;2.15;;;;;;;;;;5024842;28;20067;-69
2021/09/29 12:59:18;;;;;;;9.75;1.42;;;;;;;;;;5004702;28;20125;-67
2021/09/29 13:01:45;;;;;;;8.90;1.23;;;;;;;;;;5008590;28;20052;-67
2021/09/29 13:04:11;;;;;;;9.65;1.48;;;;;;;;;;5020535;28;20074;-68
2021/09/29 13:06:37;;;;;;;11.43;1.55;;;;;;;;;;5023555;28;20091;-68
2021/09/29 13:09:03;;;;;;;13.85;2.00;;;;;;;;;;5025504;28;20400;-68
2021/09/29 13:11:30;;;;;;;10.88;1.75;;;;;;;;;;5018869;28;20489;-68
2021/09/29 13:13:56;;;;;;;13.35;1.90;;;;;;;;;;5018949;28;20077;-68
2021/09/29 13:16:24;;;;;;;13.27;1.52;;;;;;;;;;5020808;28;20046;-69
2021/09/29 13:21:26;;;;;;;9.63;1.35;;;;;;;;;;5001239;28;20156;-69
2021/09/29 13:24:01;;;;;;;7.13;1.30;;;;;;;;;;5018669;28;20129;-68
2021/09/29 13:26:46;;;;;;;9.45;1.35;;;;;;;;;;5010432;28;20473;-68
2021/09/29 13:37:26;;;;;;;11.38;1.52;;;;;;;;;;5009240;28;20053;-69
2021/09/29 13:39:52;;;;;;;3.25;0.70;;;;;;;;;;5020350;28;20131;-70
2021/09/29 13:42:18;;;;;;;3.63;0.90;;;;;;;;;;5012478;28;20048;-69
2021/09/29 13:44:45;;;;;;;5.50;0.90;;;;;;;;;;5024450;28;20537;-68
2021/09/29 13:47:11;;;;;;;6.85;0.77;;;;;;;;;;5030971;28;21221;-68
2021/09/29 13:49:37;;;;;;;2.42;0.70;;;;;;;;;;5039544;28;20396;-68
2021/09/29 13:52:05;;;;;;;2.88;0.82;;;;;;;;;;5036289;28;20038;-68
2021/09/29 13:54:31;;;;;;;5.00;0.90;;;;;;;;;;5012165;28;20097;-68
2021/09/29 13:57:11;;;;;;;7.63;0.95;;;;;;;;;;5044412;28;20493;-68
2021/09/29 14:29:45;;;;;;;4.20;0.73;;;;;;;;;;5048476;28;20122;-70
2021/09/29 14:32:20;;;;;;;13.13;1.02;;;;;;;;;;5030518;28;20053;-70
2021/09/29 14:34:47;;;;;;;8.63;1.05;;;;;;;;;;5031713;28;20045;-70
2021/09/29 14:37:14;;;;;;;11.43;1.45;;;;;;;;;;5032401;28;20485;-70
2021/09/29 14:39:41;;;;;;;7.55;1.20;;;;;;;;;;5030226;28;20210;-70
2021/09/29 14:42:07;;;;;;;12.90;1.83;;;;;;;;;;5030754;28;20150;-69
2021/09/29 14:44:34;;;;;;;8.85;1.17;;;;;;;;;;5032392;28;20037;-70
2021/09/29 14:47:04;;;;;;;7.85;0.80;;;;;;;;;;5031932;28;20388;-70
2021/09/29 14:49:31;;;;;;;8.63;0.75;;;;;;;;;;5038777;28;20053;-70
2021/09/29 14:51:59;;;;;;;7.32;1.00;;;;;;;;;;5030046;28;20057;-70
2021/09/29 14:54:26;;;;;;;13.65;1.73;;;;;;;;;;5031665;28;20049;-70
2021/09/29 14:56:52;;;;;;;15.68;3.10;;;;;;;;;;5031362;28;20046;-70
2021/09/29 14:59:18;;;;;;;12.43;1.77;;;;;;;;;;5031817;28;20054;-70
2021/09/29 15:01:44;;;;;;;10.07;1.00;;;;;;;;;;5030031;28;20168;-70
2021/09/29 15:04:11;;;;;;;8.60;0.95;;;;;;;;;;5029825;28;20053;-71
2021/09/29 15:06:38;;;;;;;8.07;1.25;;;;;;;;;;5032515;28;20037;-68
2021/09/29 15:09:05;;;;;;;8.93;1.00;;;;;;;;;;5031642;28;20433;-71
2021/09/29 15:11:31;;;;;;;6.15;1.10;;;;;;;;;;5030678;28;20117;-69
2021/09/29 15:14:05;;;;;;;4.65;0.85;;;;;;;;;;5031494;28;20563;-70
2021/09/29 15:16:35;;;;;;;7.80;1.20;;;;;;;;;;5029764;28;20124;-70
2021/09/29 15:19:14;;;;;;;7.63;1.35;;;;;;;;;;5028370;28;20044;-70
2021/09/29 15:22:02;;;;;;;7.95;1.08;;;;;;;;;;5029414;28;20049;-70
2021/09/29 15:30:12;;;;;;;14.10;1.20;;;;;;;;;;5031284;28;20347;-69
2021/09/29 15:49:23;;;;;;;13.95;1.85;;;;;;;;;;5029903;28;20041;-69
2021/09/29 15:52:02;;;;;;;20.08;2.75;;;;;;;;;;5029210;28;20045;-69
2021/09/29 15:54:35;;;;;;;15.77;2.00;;;;;;;;;;5027526;28;20402;-69
2021/09/29 15:57:24;;;;;;;12.83;1.90;;;;;;;;;;5026542;28;20050;-69
2021/09/29 16:00:00;;;;;;;12.75;1.92;;;;;;;;;;5012039;28;20136;-69
2021/09/29 16:02:33;;;;;;;10.52;1.50;;;;;;;;;;5029937;28;20056;-69
2021/09/29 16:05:23;;;;;;;6.80;1.55;;;;;;;;;;5027951;28;20123;-69
2021/09/29 16:16:13;;;;;;;10.85;2.05;;;;;;;;;;5030336;28;20053;-69
2021/09/29 16:18:49;;;;;;;10.80;1.40;;;;;;;;;;5043177;28;20073;-69
2021/09/29 16:21:45;;;;;;;8.10;1.00;;;;;;;;;;5029608;28;20052;-69
2021/09/29 16:29:59;;;;;;;11.93;1.85;;;;;;;;;;5043072;28;20366;-69
2021/09/29 16:30:14;;;;;;;9.23;2.17;;;;;;;;;;5026480;28;20049;-69
2021/09/29 16:37:44;;;;;;;14.10;1.88;;;;;;;;;;5029638;28;20139;-69
2021/09/29 16:40:10;;;;;;;10.75;1.42;;;;;;;;;;5026141;28;20413;-69
2021/09/29 16:42:36;;;;;;;13.52;1.67;;;;;;;;;;5028415;28;20486;-69
2021/09/29 16:45:05;;;;;;;8.40;1.73;;;;;;;;;;5026126;28;20400;-68
2021/09/29 16:47:31;;;;;;;12.02;1.58;;;;;;;;;;5020403;28;20075;-74
2021/09/29 16:49:58;;;;;;;13.10;1.42;;;;;;;;;;5040707;28;20068;-69
2021/09/29 16:52:29;;;;;;;10.13;1.50;;;;;;;;;;5023558;28;20057;-68
2021/09/29 16:54:58;;;;;;;12.85;1.52;;;;;;;;;;5017390;28;20050;-69
2021/09/29 16:57:33;;;;;;;11.30;2.30;;;;;;;;;;5026369;28;20119;-68
2021/09/29 17:00:07;;;;;;;12.82;2.05;;;;;;;;;;5024323;28;20059;-69
2021/09/29 17:02:34;;;;;;;16.05;2.47;;;;;;;;;;5042447;28;20354;-69
2021/09/29 17:05:00;;;;;;;11.35;1.50;;;;;;;;;;5037671;28;20100;-69
2021/09/29 17:07:26;;;;;;;8.30;1.65;;;;;;;;;;5024012;28;20068;-68
2021/09/29 17:09:52;;;;;;;9.77;1.98;;;;;;;;;;5022842;28;20049;-69
2021/09/29 17:12:19;;;;;;;16.75;2.30;;;;;;;;;;5021297;28;20045;-69
2021/09/29 17:14:45;;;;;;;21.95;2.22;;;;;;;;;;5025459;28;20402;-73
2021/09/29 17:17:11;;;;;;;13.20;2.15;;;;;;;;;;5028935;28;20045;-69
2021/09/29 17:19:38;;;;;;;11.18;1.73;;;;;;;;;;5031991;28;20038;-68
2021/09/29 17:22:04;;;;;;;18.80;2.28;;;;;;;;;;5025022;28;20137;-69
2021/09/29 17:24:31;;;;;;;16.00;2.80;;;;;;;;;;5023341;28;20091;-69
2021/09/29 17:26:59;;;;;;;20.65;2.03;;;;;;;;;;5022762;28;20037;-69
2021/09/29 17:29:26;;;;;;;14.23;2.55;;;;;;;;;;5028259;28;20512;-69
2021/09/29 17:32:05;;;;;;;19.58;2.20;;;;;;;;;;5028670;28;20037;-69
2021/09/29 17:37:28;;;;;;;21.23;2.90;;;;;;;;;;5029312;28;20053;-69